Time;durP1;ratioP1;P1;durP2;ratioP2;P2;SDS_P1;SDS_P2;PMS_P1;PMS_P2;Temp;Humidity;BMP_temperature;BMP_pressure;BME280_temperature;BME280_humidity;BME280_pressure;Samples;Min_cycle;Max_cycle;Signal;HPM_P1;HPM_P2
2023/08/01 00:01:34;;;;;;;8.80;7.10;;;;;;;16.41;100.00;100331.48;105901;1255;73002;-46
2023/08/01 00:04:01;;;;;;;12.50;7.10;;;;;;;16.42;100.00;100332.84;105902;1253;65478;-45
2023/08/01 00:06:28;;;;;;;7.10;6.50;;;;;;;16.42;100.00;100331.63;106078;1253;72604;-45
2023/08/01 00:08:55;;;;;;;7.00;6.50;;;;;;;16.42;100.00;100331.82;105864;1256;62008;-46
2023/08/01 00:11:22;;;;;;;9.90;7.60;;;;;;;16.41;100.00;100333.02;105851;1253;60225;-45
2023/08/01 00:13:49;;;;;;;17.40;9.30;;;;;;;16.42;100.00;100328.65;105893;1254;72857;-45
2023/08/01 00:16:16;;;;;;;18.60;9.20;;;;;;;16.44;100.00;100323.34;105893;1256;65327;-45
2023/08/01 00:18:43;;;;;;;16.60;10.90;;;;;;;16.46;100.00;100318.03;106024;1253;72660;-45
2023/08/01 00:21:11;;;;;;;13.30;9.40;;;;;;;16.45;100.00;100315.45;105862;1256;61946;-46
2023/08/01 00:23:38;;;;;;;14.20;9.20;;;;;;;16.44;100.00;100313.77;105890;1252;60186;-46
2023/08/01 00:26:05;;;;;;;16.40;9.60;;;;;;;16.43;100.00;100317.66;105891;1256;72794;-45
2023/08/01 00:28:32;;;;;;;11.70;9.30;;;;;;;16.42;100.00;100319.08;105841;1255;65447;-43
2023/08/01 00:31:03;;;;;;;15.40;9.70;;;;;;;16.41;100.00;100316.50;105847;1256;72626;-46
2023/08/01 00:33:30;;;;;;;12.70;9.70;;;;;;;16.40;100.00;100318.32;105904;1256;61949;-44
2023/08/01 00:35:57;;;;;;;11.80;8.60;;;;;;;16.38;100.00;100314.54;105849;1252;60991;-44
2023/08/01 00:38:24;;;;;;;11.20;9.40;;;;;;;16.37;100.00;100313.21;105874;1252;72975;-44
2023/08/01 00:40:51;;;;;;;16.50;11.40;;;;;;;16.36;100.00;100309.77;105914;1256;64821;-44
2023/08/01 00:43:18;;;;;;;13.80;11.30;;;;;;;16.36;100.00;100312.17;105895;1254;72621;-44
2023/08/01 00:45:45;;;;;;;16.00;11.40;;;;;;;16.36;100.00;100310.30;105885;1256;62054;-44
2023/08/01 00:48:12;;;;;;;17.70;11.50;;;;;;;16.34;100.00;100310.37;105707;1254;59675;-44
2023/08/01 00:50:39;;;;;;;16.10;10.50;;;;;;;16.32;100.00;100307.49;106074;1256;73067;-44
2023/08/01 00:53:06;;;;;;;14.70;11.20;;;;;;;16.31;100.00;100308.77;105945;1256;65261;-44
2023/08/01 00:55:33;;;;;;;22.90;12.20;;;;;;;16.30;100.00;100310.39;106015;1256;72559;-45
2023/08/01 00:58:00;;;;;;;16.50;11.90;;;;;;;16.29;100.00;100308.00;105877;1256;60429;-44
2023/08/01 01:00:27;;;;;;;27.30;14.60;;;;;;;16.27;100.00;100307.02;105902;1253;60285;-45
2023/08/01 01:02:54;;;;;;;33.70;18.70;;;;;;;16.25;100.00;100308.70;105907;1254;73001;-44
2023/08/01 01:05:21;;;;;;;48.30;22.00;;;;;;;16.23;100.00;100312.58;105878;1257;65461;-44
2023/08/01 01:07:49;;;;;;;67.00;25.40;;;;;;;16.23;100.00;100307.73;105759;1253;72514;-45
2023/08/01 01:10:16;;;;;;;44.10;24.30;;;;;;;16.22;100.00;100305.33;105754;1258;60451;-44
2023/08/01 01:12:43;;;;;;;37.20;23.60;;;;;;;16.22;100.00;100307.44;105856;1256;60267;-44
2023/08/01 01:15:10;;;;;;;34.90;22.60;;;;;;;16.22;100.00;100305.85;105873;1256;73083;-45
2023/08/01 01:17:37;;;;;;;25.80;19.20;;;;;;;16.22;100.00;100307.59;105876;1255;64480;-44
2023/08/01 01:20:04;;;;;;;25.80;17.70;;;;;;;16.21;100.00;100305.23;105884;1253;72704;-44
2023/08/01 01:22:32;;;;;;;28.50;17.90;;;;;;;16.19;100.00;100301.80;105766;1257;61962;-44
2023/08/01 01:24:59;;;;;;;21.40;16.70;;;;;;;16.18;100.00;100302.02;105858;1252;60329;-44
2023/08/01 01:27:26;;;;;;;26.60;17.50;;;;;;;16.18;100.00;100298.02;105879;1258;72760;-45
2023/08/01 01:29:53;;;;;;;23.40;16.50;;;;;;;16.18;100.00;100297.19;105781;1259;65358;-44
2023/08/01 01:32:20;;;;;;;23.70;15.90;;;;;;;16.18;100.00;100295.96;105886;1254;72705;-44
2023/08/01 01:34:48;;;;;;;25.90;17.40;;;;;;;16.17;100.00;100294.41;105831;1259;60812;-44
2023/08/01 01:37:14;;;;;;;21.50;16.00;;;;;;;16.15;100.00;100297.80;105856;1253;60346;-45
2023/08/01 01:39:41;;;;;;;21.20;15.50;;;;;;;16.13;100.00;100298.59;105834;1254;72897;-45
2023/08/01 01:42:08;;;;;;;19.90;15.60;;;;;;;16.12;100.00;100295.19;105975;1256;65631;-45
2023/08/01 01:44:35;;;;;;;26.90;18.40;;;;;;;16.10;100.00;100289.50;105863;1253;72678;-45
2023/08/01 01:47:02;;;;;;;58.90;19.40;;;;;;;16.09;100.00;100288.50;105856;1256;62155;-45
2023/08/01 01:49:30;;;;;;;38.10;20.60;;;;;;;16.09;100.00;100289.19;105824;1254;60530;-45
2023/08/01 01:51:57;;;;;;;62.10;19.20;;;;;;;16.08;100.00;100293.08;105852;1253;72375;-45
2023/08/01 01:54:25;;;;;;;22.80;17.80;;;;;;;16.06;100.00;100291.05;105659;1256;65372;-43
2023/08/01 01:56:52;;;;;;;20.20;17.40;;;;;;;16.05;100.00;100292.51;106068;1254;72370;-49
2023/08/01 01:59:19;;;;;;;27.00;17.00;;;;;;;16.05;100.00;100291.27;105884;1256;62014;-43
2023/08/01 02:01:46;;;;;;;21.40;17.00;;;;;;;16.08;100.00;100291.84;105883;1254;60443;-44
2023/08/01 02:04:13;;;;;;;21.80;16.10;;;;;;;16.08;100.00;100287.84;106011;1256;73764;-44
2023/08/01 02:06:41;;;;;;;20.10;16.50;;;;;;;16.07;100.00;100288.58;105815;1254;65549;-44
2023/08/01 02:09:08;;;;;;;19.20;16.70;;;;;;;16.06;100.00;100287.78;105850;1256;72733;-45
2023/08/01 02:11:35;;;;;;;20.30;16.50;;;;;;;16.04;100.00;100288.71;105848;1253;61988;-44
2023/08/01 02:14:03;;;;;;;18.10;15.60;;;;;;;16.03;100.00;100288.20;105846;1254;60426;-44
2023/08/01 02:16:30;;;;;;;22.50;16.90;;;;;;;16.02;100.00;100289.11;105848;1257;73864;-44
2023/08/01 02:18:57;;;;;;;23.20;17.80;;;;;;;16.02;100.00;100290.17;105958;1256;65959;-45
2023/08/01 02:21:24;;;;;;;27.30;16.70;;;;;;;16.03;100.00;100285.26;105802;1253;72632;-45
2023/08/01 02:23:51;;;;;;;19.10;14.90;;;;;;;16.06;100.00;100283.05;105929;1252;61774;-44
2023/08/01 02:26:18;;;;;;;19.50;16.20;;;;;;;16.12;100.00;100285.05;105956;1253;60492;-44
2023/08/01 02:28:45;;;;;;;19.90;15.10;;;;;;;16.19;100.00;100279.20;105841;1256;73779;-45
2023/08/01 02:31:12;;;;;;;15.60;13.60;;;;;;;16.21;100.00;100279.29;105882;1253;65566;-45
2023/08/01 02:33:38;;;;;;;16.60;14.20;;;;;;;16.22;100.00;100276.77;105972;1255;70645;-44
2023/08/01 02:36:05;;;;;;;21.20;15.20;;;;;;;16.24;100.00;100276.86;105811;1258;61923;-44
2023/08/01 02:38:32;;;;;;;16.20;14.50;;;;;;;16.27;100.00;100275.20;105904;1253;60427;-44
2023/08/01 02:40:59;;;;;;;20.10;14.20;;;;;;;16.28;100.00;100275.46;105928;1252;73848;-44
2023/08/01 02:43:26;;;;;;;20.70;14.40;;;;;;;16.29;100.00;100274.05;105895;1255;65468;-44
2023/08/01 02:45:53;;;;;;;18.40;14.70;;;;;;;16.30;100.00;100275.92;105952;1253;72613;-44
2023/08/01 02:48:20;;;;;;;24.20;14.00;;;;;;;16.32;100.00;100272.50;105770;1257;60788;-45
2023/08/01 02:50:46;;;;;;;24.30;15.20;;;;;;;16.36;100.00;100272.66;105888;1256;60392;-44
2023/08/01 02:53:13;;;;;;;22.50;14.50;;;;;;;16.38;100.00;100273.27;105852;1256;73569;-44
2023/08/01 02:55:40;;;;;;;17.30;13.30;;;;;;;16.41;100.00;100279.23;105993;1256;65438;-46
2023/08/01 02:58:07;;;;;;;21.10;14.80;;;;;;;16.45;100.00;100280.48;105851;1253;72674;-45
2023/08/01 03:00:38;;;;;;;24.70;15.10;;;;;;;16.46;100.00;100280.75;105877;1253;61962;-46
2023/08/01 03:03:05;;;;;;;35.40;16.90;;;;;;;16.51;100.00;100284.36;105850;1253;60350;-45
2023/08/01 03:05:35;;;;;;;47.20;18.10;;;;;;;16.56;100.00;100281.70;105865;1252;73835;-45
2023/08/01 03:08:02;;;;;;;50.70;19.10;;;;;;;16.65;100.00;100287.92;105871;1256;65370;-45
2023/08/01 03:10:29;;;;;;;56.00;19.30;;;;;;;16.72;100.00;100284.98;105941;1254;72640;-45
2023/08/01 03:13:03;;;;;;;65.00;20.70;;;;;;;16.80;100.00;100290.34;105874;1256;61961;-46
2023/08/01 03:15:30;;;;;;;61.80;25.10;;;;;;;16.87;100.00;100290.38;105774;1256;60390;-46
2023/08/01 03:17:58;;;;;;;59.40;26.30;;;;;;;16.93;100.00;100285.02;105791;1251;73788;-46
2023/08/01 03:20:25;;;;;;;50.90;21.50;;;;;;;17.01;100.00;100283.83;105653;1256;65517;-45
2023/08/01 03:22:51;;;;;;;50.20;20.40;;;;;;;17.07;100.00;100282.83;106002;1254;72611;-48
2023/08/01 03:25:19;;;;;;;41.30;16.60;;;;;;;17.16;100.00;100288.16;105855;1256;62435;-48
2023/08/01 03:27:45;;;;;;;50.40;16.80;;;;;;;17.25;100.00;100288.10;105830;1256;60531;-44
2023/08/01 03:30:13;;;;;;;36.50;16.80;;;;;;;17.31;100.00;100287.42;105821;1256;73928;-44
2023/08/01 03:32:40;;;;;;;28.30;17.10;;;;;;;17.37;100.00;100284.70;105811;1254;65464;-44
2023/08/01 03:35:08;;;;;;;43.10;15.90;;;;;;;17.43;100.00;100291.38;105980;1256;72641;-44
2023/08/01 03:37:35;;;;;;;37.00;16.40;;;;;;;17.47;100.00;100290.65;105876;1253;61891;-44
2023/08/01 03:40:02;;;;;;;28.30;17.00;;;;;;;17.50;100.00;100292.60;105875;1254;60524;-44
2023/08/01 03:42:29;;;;;;;35.10;16.50;;;;;;;17.54;100.00;100294.85;105857;1255;73768;-44
2023/08/01 03:44:56;;;;;;;43.50;17.50;;;;;;;17.57;100.00;100295.91;105844;1256;65343;-44
2023/08/01 03:47:23;;;;;;;25.70;16.20;;;;;;;17.61;100.00;100293.80;105838;1256;72699;-44
2023/08/01 03:49:50;;;;;;;44.50;16.40;;;;;;;17.65;100.00;100294.29;105756;1257;61636;-44
2023/08/01 03:52:17;;;;;;;40.80;11.90;;;;;;;17.70;100.00;100292.64;105878;1254;60399;-45
2023/08/01 03:54:44;;;;;;;55.30;11.30;;;;;;;17.77;100.00;100296.63;105716;1257;73570;-44
2023/08/01 03:57:11;;;;;;;57.90;11.30;;;;;;;17.84;100.00;100299.61;105825;1256;65349;-44
2023/08/01 03:59:38;;;;;;;39.70;10.40;;;;;;;17.94;100.00;100302.59;105855;1256;72629;-44
2023/08/01 04:02:05;;;;;;;51.50;9.90;;;;;;;18.05;100.00;100302.73;105854;1255;61850;-44
2023/08/01 04:04:32;;;;;;;25.90;9.80;;;;;;;18.12;100.00;100306.97;105973;1255;60530;-44
2023/08/01 04:06:59;;;;;;;22.10;8.00;;;;;;;18.20;100.00;100307.57;105874;1257;73744;-45
2023/08/01 04:09:27;;;;;;;49.90;10.30;;;;;;;18.25;100.00;100312.02;105868;1255;65418;-44
2023/08/01 04:11:54;;;;;;;45.80;8.60;;;;;;;18.31;100.00;100311.05;105926;1257;73886;-46
2023/08/01 04:14:22;;;;;;;50.10;9.80;;;;;;;18.43;100.00;100307.08;105910;1256;61980;-45
2023/08/01 04:16:49;;;;;;;51.10;10.30;;;;;;;18.53;100.00;100304.59;105861;1258;60626;-45
2023/08/01 04:19:15;;;;;;;59.30;10.60;;;;;;;18.71;100.00;100298.91;105844;1251;73764;-45
2023/08/01 04:21:43;;;;;;;45.60;8.60;;;;;;;18.91;100.00;100305.18;105731;1256;65561;-50
2023/08/01 04:24:10;;;;;;;51.20;9.40;;;;;;;19.04;100.00;100311.48;105878;1256;72530;-49
2023/08/01 04:26:38;;;;;;;35.20;11.00;;;;;;;19.22;100.00;100314.17;105962;1254;61673;-44
2023/08/01 04:29:05;;;;;;;33.50;10.20;;;;;;;19.43;100.00;100309.29;106007;1251;60441;-45
2023/08/01 04:31:32;;;;;;;30.20;9.10;;;;;;;19.53;100.00;100309.05;105899;1256;73845;-45
2023/08/01 04:33:59;;;;;;;18.80;8.80;;;;;;;19.58;100.00;100317.69;105856;1256;65514;-45
2023/08/01 04:36:26;;;;;;;14.80;7.90;;;;;;;19.66;100.00;100325.30;106052;1258;72718;-45
2023/08/01 04:38:53;;;;;;;21.90;10.60;;;;;;;19.74;100.00;100329.55;105902;1256;60882;-45
2023/08/01 04:41:20;;;;;;;16.00;8.80;;;;;;;19.75;100.00;100335.75;105898;1255;60434;-45
2023/08/01 04:43:46;;;;;;;23.60;9.00;;;;;;;19.80;100.00;100334.73;105844;1251;73814;-45
2023/08/01 04:46:13;;;;;;;19.60;10.20;;;;;;;19.77;100.00;100336.75;105831;1256;65419;-45
2023/08/01 04:48:41;;;;;;;19.90;10.00;;;;;;;19.77;100.00;100339.48;105924;1257;72669;-45
2023/08/01 04:51:08;;;;;;;13.40;10.20;;;;;;;19.83;100.00;100344.08;106041;1256;61929;-44
2023/08/01 04:53:35;;;;;;;25.80;11.10;;;;;;;19.83;100.00;100349.15;105913;1253;60438;-45
2023/08/01 04:56:02;;;;;;;19.80;10.70;;;;;;;19.83;100.00;100356.64;105870;1255;73780;-44
2023/08/01 04:58:30;;;;;;;23.30;10.00;;;;;;;19.91;100.00;100360.77;106047;1257;65368;-44
2023/08/01 05:00:57;;;;;;;24.50;14.60;;;;;;;19.98;100.00;100365.30;105868;1257;72667;-44
2023/08/01 05:03:24;;;;;;;22.80;11.40;;;;;;;20.05;100.00;100372.04;105983;1254;61933;-44
2023/08/01 05:05:51;;;;;;;13.90;11.40;;;;;;;20.21;100.00;100377.77;106048;1256;60496;-45
2023/08/01 05:08:18;;;;;;;16.40;13.30;;;;;;;20.33;100.00;100384.95;105856;1255;73848;-45
2023/08/01 05:10:45;;;;;;;13.00;11.70;;;;;;;20.49;100.00;100395.20;105881;1257;65496;-44
2023/08/01 05:13:13;;;;;;;15.30;11.60;;;;;;;20.74;100.00;100404.69;106001;1256;72639;-45
2023/08/01 05:15:40;;;;;;;16.40;13.30;;;;;;;20.86;100.00;100413.28;105923;1256;61805;-45
2023/08/01 05:18:07;;;;;;;13.70;12.20;;;;;;;20.81;100.00;100429.88;105863;1257;60428;-45
2023/08/01 05:20:34;;;;;;;13.70;12.40;;;;;;;20.82;100.00;100445.27;105984;1256;73823;-45
2023/08/01 05:23:01;;;;;;;14.00;12.60;;;;;;;20.85;100.00;100461.42;105905;1256;65471;-45
2023/08/01 05:25:28;;;;;;;12.80;11.40;;;;;;;20.92;100.00;100477.80;105934;1254;72628;-45
2023/08/01 05:27:55;;;;;;;12.10;11.00;;;;;;;21.05;100.00;100493.70;106037;1255;60859;-45
2023/08/01 05:30:23;;;;;;;13.20;11.90;;;;;;;21.24;100.00;100513.38;105863;1255;60634;-45
2023/08/01 05:32:50;;;;;;;14.60;12.10;;;;;;;21.45;100.00;100527.19;105894;1255;73835;-45
2023/08/01 05:35:17;;;;;;;12.00;10.80;;;;;;;21.51;100.00;100559.08;106007;1253;65525;-45
2023/08/01 05:37:44;;;;;;;16.30;10.40;;;;;;;21.57;100.00;100603.28;105894;1256;71663;-45
2023/08/01 05:40:12;;;;;;;14.30;9.90;;;;;;;21.75;100.00;100635.74;105886;1254;62082;-45
2023/08/01 05:42:39;;;;;;;13.80;8.90;;;;;;;22.03;100.00;100659.49;106016;1256;60521;-45
2023/08/01 05:45:06;;;;;;;8.90;7.90;;;;;;;22.38;100.00;100701.40;105840;1256;73891;-45
2023/08/01 05:47:36;;;;;;;8.20;7.60;;;;;;;22.78;100.00;100752.51;105877;1257;65325;-45
2023/08/01 05:50:03;;;;;;;8.20;7.00;;;;;;;23.10;100.00;100820.23;105896;1254;72541;-46
2023/08/01 05:52:31;;;;;;;7.40;6.50;;;;;;;23.45;100.00;100863.42;106139;1256;61772;-45
2023/08/01 05:54:58;;;;;;;7.80;6.80;;;;;;;23.83;100.00;100878.34;105898;1254;60469;-46
2023/08/01 05:57:25;;;;;;;8.30;6.00;;;;;;;24.17;100.00;100837.63;105874;1256;73802;-46
2023/08/01 05:59:51;;;;;;;9.90;6.30;;;;;;;24.59;100.00;100758.13;105820;1259;65406;-46
2023/08/01 06:02:18;;;;;;;10.10;6.30;;;;;;;24.95;100.00;100570.27;105833;1256;72539;-46
2023/08/01 06:04:45;;;;;;;12.70;5.80;;;;;;;25.06;100.00;100316.62;105948;1251;60331;-46
2023/08/01 06:07:12;;;;;;;9.50;6.20;;;;;;;24.94;100.00;100096.12;105874;1252;60431;-46
2023/08/01 06:09:39;;;;;;;7.20;6.00;;;;;;;24.80;100.00;100043.73;105907;1256;73656;-46
2023/08/01 06:12:06;;;;;;;5.50;5.00;;;;;;;24.73;100.00;100048.30;105876;1254;64274;-45
2023/08/01 06:14:33;;;;;;;5.60;5.10;;;;;;;24.75;100.00;100018.70;105908;1255;73106;-47
2023/08/01 06:17:00;;;;;;;8.50;5.10;;;;;;;24.81;100.00;99954.52;105903;1256;60739;-46
2023/08/01 06:19:27;;;;;;;7.30;6.00;;;;;;;24.95;100.00;99915.37;105899;1251;60438;-45
2023/08/01 06:21:55;;;;;;;5.50;5.10;;;;;;;25.17;100.00;99909.96;105909;1257;73818;-46
2023/08/01 06:24:22;;;;;;;6.20;5.60;;;;;;;25.28;100.00;99876.50;105855;1256;65315;-45
2023/08/01 06:26:49;;;;;;;5.20;4.80;;;;;;;25.28;100.00;99859.95;105872;1254;72481;-46
2023/08/01 06:29:16;;;;;;;6.90;5.40;;;;;;;25.31;100.00;99861.40;105856;1255;61939;-46
2023/08/01 06:31:43;;;;;;;5.50;4.90;;;;;;;25.51;100.00;99862.81;105860;1254;60543;-46
2023/08/01 06:34:10;;;;;;;5.30;4.90;;;;;;;25.77;100.00;99841.19;105878;1254;73849;-46
2023/08/01 06:36:37;;;;;;;9.70;4.90;;;;;;;25.99;100.00;99830.15;106053;1256;65445;-46
2023/08/01 06:39:05;;;;;;;5.70;4.20;;;;;;;26.24;100.00;99829.45;105887;1254;72691;-46
2023/08/01 06:41:32;;;;;;;6.00;4.40;;;;;;;26.56;100.00;99834.88;105849;1254;60586;-45
2023/08/01 06:43:59;;;;;;;6.70;4.30;;;;;;;26.85;100.00;99860.11;105920;1254;60445;-46
2023/08/01 06:46:25;;;;;;;4.90;4.50;;;;;;;27.00;100.00;99923.33;106095;1254;74102;-46
2023/08/01 06:48:52;;;;;;;3.90;3.60;;;;;;;27.00;100.00;99963.89;105803;1254;65180;-51
2023/08/01 06:51:20;;;;;;;3.70;3.50;;;;;;;26.95;100.00;99980.80;105918;1254;72676;-46
2023/08/01 06:53:46;;;;;;;4.50;3.50;;;;;;;26.87;100.00;100000.80;105861;1257;62051;-45
2023/08/01 06:56:13;;;;;;;5.90;3.40;;;;;;;26.75;100.00;100031.69;105920;1253;60437;-45
2023/08/01 06:58:40;;;;;;;3.30;3.10;;;;;;;26.65;100.00;100032.05;105876;1258;74240;-46
2023/08/01 07:01:07;;;;;;;5.30;3.40;;;;;;;26.57;100.00;100018.23;105946;1255;65521;-46
2023/08/01 07:03:34;;;;;;;8.70;4.30;;;;;;;26.46;100.00;100023.67;105869;1256;72739;-46
2023/08/01 07:06:01;;;;;;;10.50;4.10;;;;;;;26.33;100.00;100045.02;105863;1255;60424;-46
2023/08/01 07:08:28;;;;;;;6.10;4.20;;;;;;;26.33;100.00;100043.80;105835;1254;60397;-46
2023/08/01 07:10:54;;;;;;;4.30;3.80;;;;;;;26.37;100.00;100056.47;105668;1252;73821;-45
2023/08/01 07:13:22;;;;;;;16.80;4.00;;;;;;;26.31;100.00;100085.02;105646;1256;65926;-45
2023/08/01 07:15:49;;;;;;;15.50;4.90;;;;;;;26.23;100.00;100093.84;105841;1255;72506;-46
2023/08/01 07:18:16;;;;;;;6.00;4.10;;;;;;;26.16;100.00;100103.35;105895;1256;60460;-48
2023/08/01 07:20:43;;;;;;;11.00;3.80;;;;;;;26.45;100.00;100091.73;105856;1253;60399;-46
2023/08/01 07:23:09;;;;;;;5.10;4.10;;;;;;;26.86;100.00;100081.98;105915;1256;73563;-46
2023/08/01 07:25:36;;;;;;;4.60;3.40;;;;;;;27.18;100.00;100084.52;105878;1256;65424;-46
2023/08/01 07:28:04;;;;;;;8.00;3.20;;;;;;;27.21;100.00;100129.83;105959;1255;73819;-46
2023/08/01 07:30:31;;;;;;;6.00;3.80;;;;;;;27.35;100.00;100154.13;105900;1253;60332;-46
2023/08/01 07:32:57;;;;;;;6.10;3.70;;;;;;;27.57;100.00;100147.30;105932;1251;60610;-46
2023/08/01 07:35:24;;;;;;;3.80;2.90;;;;;;;27.67;100.00;100139.94;105903;1256;74323;-46
2023/08/01 07:37:51;;;;;;;6.20;3.00;;;;;;;27.64;100.00;100157.96;105896;1257;65488;-46
2023/08/01 07:40:18;;;;;;;3.40;2.70;;;;;;;27.59;100.00;100176.69;105901;1254;73022;-45
2023/08/01 07:42:46;;;;;;;3.40;3.10;;;;;;;27.55;100.00;100185.75;105896;1257;60342;-46
2023/08/01 07:45:13;;;;;;;3.20;2.90;;;;;;;27.37;100.00;100205.27;105924;1254;60525;-46
2023/08/01 07:47:41;;;;;;;2.80;2.60;;;;;;;27.19;100.00;100202.98;105892;1254;73808;-46
2023/08/01 07:50:08;;;;;;;2.90;2.50;;;;;;;27.08;97.17;100186.86;105883;1256;65350;-46
2023/08/01 07:52:35;;;;;;;3.20;2.70;;;;;;;26.97;95.75;100199.92;105930;1257;72706;-46
2023/08/01 07:55:03;;;;;;;12.10;3.10;;;;;;;26.76;97.55;100217.91;105863;1256;60367;-46
2023/08/01 07:57:30;;;;;;;4.70;3.50;;;;;;;26.63;100.00;100246.45;105744;1254;60406;-46
2023/08/01 07:59:57;;;;;;;3.90;3.50;;;;;;;26.71;100.00;100239.58;105891;1257;73670;-46
2023/08/01 08:02:23;;;;;;;4.10;3.30;;;;;;;27.06;100.00;100218.02;105894;1256;65530;-46
2023/08/01 08:04:51;;;;;;;3.90;3.20;;;;;;;27.54;100.00;100186.33;105872;1255;72600;-46
2023/08/01 08:07:17;;;;;;;4.10;3.60;;;;;;;27.93;100.00;100173.25;106106;1256;60489;-46
2023/08/01 08:09:44;;;;;;;2.60;2.50;;;;;;;28.07;96.40;100146.76;105879;1254;60412;-46
2023/08/01 08:12:12;;;;;;;3.60;2.90;;;;;;;27.97;87.03;100154.73;105944;1254;73821;-46
2023/08/01 08:14:38;;;;;;;4.90;3.10;;;;;;;28.15;87.17;100175.45;105854;1256;65665;-46
2023/08/01 08:17:05;;;;;;;4.10;3.00;;;;;;;28.37;85.48;100171.76;105853;1254;72500;-46
2023/08/01 08:19:33;;;;;;;3.00;2.80;;;;;;;28.49;78.91;100143.52;105833;1257;60416;-46
2023/08/01 08:22:01;;;;;;;3.20;3.00;;;;;;;28.43;80.49;100177.91;106091;1251;60428;-46
2023/08/01 08:24:29;;;;;;;5.10;3.30;;;;;;;28.30;80.10;100184.80;105943;1253;73880;-46
2023/08/01 08:26:55;;;;;;;6.10;3.20;;;;;;;28.32;89.57;100221.86;106070;1254;65437;-46
2023/08/01 08:29:23;;;;;;;6.10;3.40;;;;;;;28.61;90.13;100194.73;105904;1255;72981;-46
2023/08/01 08:31:50;;;;;;;6.50;3.10;;;;;;;28.92;81.02;100151.07;105941;1255;60323;-46
2023/08/01 08:34:17;;;;;;;3.80;3.50;;;;;;;28.86;74.93;100123.42;105869;1251;60441;-46
2023/08/01 08:36:46;;;;;;;5.50;3.60;;;;;;;28.72;78.85;100182.15;105828;1254;73889;-46
2023/08/01 08:39:13;;;;;;;5.20;3.50;;;;;;;28.88;81.77;100192.98;105900;1257;65322;-46
2023/08/01 08:41:45;;;;;;;5.80;3.60;;;;;;;29.11;78.36;100166.52;105882;1254;72679;-46
2023/08/01 08:44:12;;;;;;;3.60;3.30;;;;;;;29.34;77.96;100166.66;105937;1254;60671;-46
2023/08/01 08:46:42;;;;;;;6.30;3.20;;;;;;;29.62;75.65;100149.98;105837;1254;61106;-47
2023/08/01 08:49:09;;;;;;;4.00;3.60;;;;;;;29.76;73.16;100130.34;105896;1258;73776;-46
2023/08/01 08:51:38;;;;;;;3.80;3.50;;;;;;;29.64;70.60;100109.44;106010;1257;64815;-46
2023/08/01 08:54:05;;;;;;;6.90;3.70;;;;;;;29.45;67.87;100079.06;105922;1254;71699;-46
2023/08/01 08:56:32;;;;;;;6.10;3.30;;;;;;;29.34;70.84;100148.54;105935;1256;60697;-46
2023/08/01 08:58:59;;;;;;;5.30;3.10;;;;;;;29.47;70.97;100152.45;105669;1254;61294;-46
2023/08/01 09:01:26;;;;;;;4.60;2.80;;;;;;;29.61;70.01;100131.95;105680;1254;73966;-46
2023/08/01 09:03:55;;;;;;;4.70;2.80;;;;;;;29.67;65.87;100062.70;105859;1255;65431;-46
2023/08/01 09:06:29;;;;;;;2.80;2.60;;;;;;;29.64;63.20;100022.48;105875;1254;73159;-47
2023/08/01 09:09:06;;;;;;;6.00;2.60;;;;;;;29.59;62.50;100019.89;105763;1256;60467;-46
2023/08/01 09:11:45;;;;;;;2.50;2.40;;;;;;;29.60;59.90;99958.50;105938;1253;60529;-49
2023/08/01 09:14:12;;;;;;;6.20;2.70;;;;;;;29.64;58.70;99937.23;105908;1254;73769;-47
2023/08/01 09:16:42;;;;;;;3.40;2.50;;;;;;;29.62;57.71;99910.05;105847;1254;65425;-46
2023/08/01 09:19:12;;;;;;;4.80;1.80;;;;;;;29.47;56.65;99890.66;105914;1257;72532;-46
2023/08/01 09:21:39;;;;;;;3.80;2.60;;;;;;;29.57;55.18;99832.21;105924;1257;60537;-46
2023/08/01 09:24:19;;;;;;;3.70;2.30;;;;;;;29.73;55.44;99862.33;105937;1253;60479;-47
2023/08/01 09:26:48;;;;;;;2.60;2.10;;;;;;;29.74;55.22;99864.46;105893;1256;73701;-46
2023/08/01 09:29:18;;;;;;;3.40;2.50;;;;;;;29.90;56.71;99944.52;105917;1255;65524;-46
2023/08/01 09:31:45;;;;;;;2.90;2.20;;;;;;;30.17;56.13;99907.57;106035;1255;71426;-47
2023/08/01 09:34:20;;;;;;;2.90;2.50;;;;;;;30.28;58.41;100011.95;105994;1256;60421;-45
2023/08/01 09:36:47;;;;;;;3.50;2.90;;;;;;;30.45;58.44;100000.72;106088;1255;60418;-46
2023/08/01 09:39:18;;;;;;;4.90;2.50;;;;;;;30.32;57.77;99970.41;105921;1257;73939;-46
2023/08/01 09:41:56;;;;;;;3.60;2.30;;;;;;;30.29;56.95;99937.73;105943;1254;65383;-47
2023/08/01 09:44:26;;;;;;;7.10;2.40;;;;;;;30.33;57.29;99960.17;105897;1256;72839;-47
2023/08/01 09:47:03;;;;;;;2.90;2.70;;;;;;;30.42;56.90;99944.50;105894;1254;60348;-46
2023/08/01 09:49:31;;;;;;;3.60;3.00;;;;;;;30.34;55.58;99884.88;105903;1253;60521;-47
2023/08/01 09:51:58;;;;;;;3.90;2.70;;;;;;;30.09;56.69;99958.67;105647;1251;309805;-46
2023/08/01 09:57:31;;;;;;;;;;;;;;;30.27;59.12;100041.31;102507;1303;603401;-46
2023/08/01 09:59:59;;;;;;;3.90;2.70;;;;;;;30.53;59.08;100021.86;105044;1270;59237;-46
2023/08/01 10:02:27;;;;;;;6.10;2.90;;;;;;;30.70;57.95;99967.88;105105;1267;60260;-47
2023/08/01 10:04:56;;;;;;;3.90;2.50;;;;;;;30.79;58.02;99974.05;104808;1270;71949;-46
2023/08/01 10:07:26;;;;;;;4.10;2.70;;;;;;;30.82;56.48;99907.43;104855;1273;65348;-47
2023/08/01 10:09:54;;;;;;;3.20;2.80;;;;;;;30.86;56.03;99897.73;104480;1278;500686;-47
2023/08/01 10:12:22;;;;;;;23.20;3.80;;;;;;;30.76;55.87;99898.56;105199;1268;60239;-47
2023/08/01 10:14:50;;;;;;;11.40;2.70;;;;;;;30.53;55.62;99885.95;105144;1270;59970;-46
2023/08/01 10:17:17;;;;;;;11.50;3.10;;;;;;;30.26;55.56;99888.20;105062;1269;72143;-47
2023/08/01 10:19:44;;;;;;;6.70;2.60;;;;;;;30.13;57.52;99987.08;105156;1270;65500;-46
2023/08/01 10:22:11;;;;;;;7.70;2.50;;;;;;;30.18;58.34;100008.67;105107;1269;72688;-47
2023/08/01 10:24:38;;;;;;;9.90;2.90;;;;;;;30.40;56.46;99922.42;105079;1270;60227;-46
2023/08/01 10:27:31;;;;;;;3.40;3.10;;;;;;;30.74;55.80;99891.21;105156;1264;60278;-47
2023/08/01 10:29:59;;;;;;;8.60;3.00;;;;;;;30.83;55.61;99886.74;105083;1269;72888;-46
2023/08/01 10:32:34;;;;;;;3.60;2.60;;;;;;;30.80;53.45;99762.44;105258;1268;65443;-46
2023/08/01 10:35:01;;;;;;;9.20;2.60;;;;;;;30.71;52.23;99690.31;105148;1269;72640;-46
2023/08/01 10:37:42;;;;;;;3.50;2.70;;;;;;;30.77;53.22;99776.14;105557;1262;60854;-46
2023/08/01 10:40:09;;;;;;;4.80;2.50;;;;;;;30.97;52.27;99711.83;105455;1259;60403;-46
2023/08/01 10:42:41;;;;;;;3.00;2.40;;;;;;;31.08;53.03;99771.08;105566;1257;73111;-46
2023/08/01 10:45:22;;;;;;;5.00;2.40;;;;;;;31.31;53.78;99827.66;105537;1262;65471;-46
2023/08/01 10:47:50;;;;;;;3.90;2.20;;;;;;;31.50;54.22;99850.24;105547;1258;72748;-47
2023/08/01 10:50:17;;;;;;;5.00;2.30;;;;;;;31.62;56.49;99960.90;105668;1257;60303;-47
2023/08/01 10:52:46;;;;;;;5.80;3.60;;;;;;;31.71;53.53;99785.08;105571;1257;61620;-47
2023/08/01 10:55:13;;;;;;;3.20;2.70;;;;;;;31.61;52.98;99760.20;105642;1262;73420;-46
2023/08/01 10:57:50;;;;;;;6.80;2.40;;;;;;;31.39;53.60;99821.80;105606;1263;64205;-49
2023/08/01 11:00:19;;;;;;;5.40;2.40;;;;;;;31.16;53.16;99799.84;105453;1260;72645;-47
2023/08/01 11:02:51;;;;;;;5.60;2.90;;;;;;;31.02;52.69;99780.08;105484;1263;60170;-47
2023/08/01 11:05:18;;;;;;;7.50;2.70;;;;;;;30.99;54.31;99895.94;105680;1254;60171;-47
2023/08/01 11:08:01;;;;;;;2.60;2.40;;;;;;;31.00;53.36;99822.48;105633;1254;72988;-47
2023/08/01 11:10:31;;;;;;;3.20;2.80;;;;;;;31.05;53.38;99828.85;105700;1259;65511;-47
2023/08/01 11:12:59;;;;;;;2.60;2.40;;;;;;;31.12;53.35;99829.46;105659;1254;72795;-47